sensor_id;sensor_type;location;lat;lon;timestamp;temperature;humidity
2603;DHT22;1311;47.966;7.958;2022-08-19T00:00:46;18.50;99.90
2603;DHT22;1311;47.966;7.958;2022-08-19T00:03:13;18.30;99.90
2603;DHT22;1311;47.966;7.958;2022-08-19T00:05:39;18.20;99.90
2603;DHT22;1311;47.966;7.958;2022-08-19T00:08:07;18.20;99.90
2603;DHT22;1311;47.966;7.958;2022-08-19T00:17:58;18.30;99.90
2603;DHT22;1311;47.966;7.958;2022-08-19T00:25:19;18.30;99.90
2603;DHT22;1311;47.966;7.958;2022-08-19T00:32:42;18.50;99.90
2603;DHT22;1311;47.966;7.958;2022-08-19T00:35:09;18.60;99.90
2603;DHT22;1311;47.966;7.958;2022-08-19T00:37:37;18.50;99.90
2603;DHT22;1311;47.966;7.958;2022-08-19T00:40:06;18.50;99.90
2603;DHT22;1311;47.966;7.958;2022-08-19T00:45:02;18.50;99.90
2603;DHT22;1311;47.966;7.958;2022-08-19T00:47:36;18.50;99.90
2603;DHT22;1311;47.966;7.958;2022-08-19T00:50:04;18.50;99.90
2603;DHT22;1311;47.966;7.958;2022-08-19T00:52:34;18.60;99.90
2603;DHT22;1311;47.966;7.958;2022-08-19T00:55:04;18.40;99.90
2603;DHT22;1311;47.966;7.958;2022-08-19T00:57:35;18.50;99.90
2603;DHT22;1311;47.966;7.958;2022-08-19T01:00:07;18.50;99.90
2603;DHT22;1311;47.966;7.958;2022-08-19T01:02:36;18.60;99.90
2603;DHT22;1311;47.966;7.958;2022-08-19T01:05:06;18.40;99.90
2603;DHT22;1311;47.966;7.958;2022-08-19T01:07:35;18.40;99.90
2603;DHT22;1311;47.966;7.958;2022-08-19T01:10:07;18.50;99.90
2603;DHT22;1311;47.966;7.958;2022-08-19T01:12:34;18.50;99.90
2603;DHT22;1311;47.966;7.958;2022-08-19T01:15:02;18.60;99.90
2603;DHT22;1311;47.966;7.958;2022-08-19T01:17:29;18.50;99.90
2603;DHT22;1311;47.966;7.958;2022-08-19T01:19:58;18.40;99.90
2603;DHT22;1311;47.966;7.958;2022-08-19T01:22:29;18.40;99.90
2603;DHT22;1311;47.966;7.958;2022-08-19T01:24:57;18.50;99.90
2603;DHT22;1311;47.966;7.958;2022-08-19T01:27:23;18.30;99.90
2603;DHT22;1311;47.966;7.958;2022-08-19T01:29:50;18.30;99.90
2603;DHT22;1311;47.966;7.958;2022-08-19T01:32:17;18.40;99.90
2603;DHT22;1311;47.966;7.958;2022-08-19T01:34:44;18.40;99.90
2603;DHT22;1311;47.966;7.958;2022-08-19T01:37:13;18.30;99.90
2603;DHT22;1311;47.966;7.958;2022-08-19T01:39:41;18.40;99.90
2603;DHT22;1311;47.966;7.958;2022-08-19T01:42:08;18.60;99.90
2603;DHT22;1311;47.966;7.958;2022-08-19T01:44:37;18.50;99.90
2603;DHT22;1311;47.966;7.958;2022-08-19T01:47:06;18.60;99.90
2603;DHT22;1311;47.966;7.958;2022-08-19T01:49:35;18.50;99.90
2603;DHT22;1311;47.966;7.958;2022-08-19T01:52:04;18.60;99.90
2603;DHT22;1311;47.966;7.958;2022-08-19T01:54:31;18.70;99.90
2603;DHT22;1311;47.966;7.958;2022-08-19T01:57:02;18.50;99.90
2603;DHT22;1311;47.966;7.958;2022-08-19T01:59:30;18.60;99.90
2603;DHT22;1311;47.966;7.958;2022-08-19T02:01:58;18.60;99.90
2603;DHT22;1311;47.966;7.958;2022-08-19T02:04:24;18.60;99.90
2603;DHT22;1311;47.966;7.958;2022-08-19T02:06:51;18.50;99.90
2603;DHT22;1311;47.966;7.958;2022-08-19T02:09:18;18.60;99.90
2603;DHT22;1311;47.966;7.958;2022-08-19T02:11:45;18.60;99.90
2603;DHT22;1311;47.966;7.958;2022-08-19T02:14:13;18.60;99.90
2603;DHT22;1311;47.966;7.958;2022-08-19T02:16:39;18.60;99.90
2603;DHT22;1311;47.966;7.958;2022-08-19T02:19:07;18.70;99.90
2603;DHT22;1311;47.966;7.958;2022-08-19T02:21:34;18.70;99.90
2603;DHT22;1311;47.966;7.958;2022-08-19T02:24:01;18.70;99.90
2603;DHT22;1311;47.966;7.958;2022-08-19T02:26:28;18.70;99.90
2603;DHT22;1311;47.966;7.958;2022-08-19T02:28:55;18.60;99.90
2603;DHT22;1311;47.966;7.958;2022-08-19T02:31:25;18.70;99.90
2603;DHT22;1311;47.966;7.958;2022-08-19T02:33:53;18.70;99.90
2603;DHT22;1311;47.966;7.958;2022-08-19T02:36:21;18.70;99.90
2603;DHT22;1311;47.966;7.958;2022-08-19T02:38:48;18.50;99.90
2603;DHT22;1311;47.966;7.958;2022-08-19T02:41:17;18.80;99.90
2603;DHT22;1311;47.966;7.958;2022-08-19T02:43:44;18.70;99.90
2603;DHT22;1311;47.966;7.958;2022-08-19T02:46:12;18.60;99.90
2603;DHT22;1311;47.966;7.958;2022-08-19T02:48:41;18.60;99.90
2603;DHT22;1311;47.966;7.958;2022-08-19T02:51:09;18.60;99.90
2603;DHT22;1311;47.966;7.958;2022-08-19T02:53:41;18.50;99.90
2603;DHT22;1311;47.966;7.958;2022-08-19T02:56:08;18.50;99.90
2603;DHT22;1311;47.966;7.958;2022-08-19T03:01:02;18.50;99.90
2603;DHT22;1311;47.966;7.958;2022-08-19T03:03:29;18.70;99.90
2603;DHT22;1311;47.966;7.958;2022-08-19T03:06:07;18.50;99.90
2603;DHT22;1311;47.966;7.958;2022-08-19T03:08:35;18.70;99.90
2603;DHT22;1311;47.966;7.958;2022-08-19T03:11:02;18.60;99.90
2603;DHT22;1311;47.966;7.958;2022-08-19T03:13:29;18.60;99.90
2603;DHT22;1311;47.966;7.958;2022-08-19T03:15:56;18.60;99.90
2603;DHT22;1311;47.966;7.958;2022-08-19T03:18:23;18.60;99.90
2603;DHT22;1311;47.966;7.958;2022-08-19T03:20:51;18.60;99.90
2603;DHT22;1311;47.966;7.958;2022-08-19T03:23:21;18.70;99.90
2603;DHT22;1311;47.966;7.958;2022-08-19T03:25:49;18.70;99.90
2603;DHT22;1311;47.966;7.958;2022-08-19T03:28:17;18.60;99.90
2603;DHT22;1311;47.966;7.958;2022-08-19T03:30:55;18.60;99.90
2603;DHT22;1311;47.966;7.958;2022-08-19T03:33:23;18.70;99.90
2603;DHT22;1311;47.966;7.958;2022-08-19T03:36:03;18.70;99.90
2603;DHT22;1311;47.966;7.958;2022-08-19T03:38:32;18.50;99.90
2603;DHT22;1311;47.966;7.958;2022-08-19T03:41:03;18.60;99.90
2603;DHT22;1311;47.966;7.958;2022-08-19T03:43:32;18.70;99.90
2603;DHT22;1311;47.966;7.958;2022-08-19T03:46:00;18.60;99.90
2603;DHT22;1311;47.966;7.958;2022-08-19T03:48:29;18.50;99.90
2603;DHT22;1311;47.966;7.958;2022-08-19T03:50:56;18.60;99.90
2603;DHT22;1311;47.966;7.958;2022-08-19T03:53:25;18.70;99.90
2603;DHT22;1311;47.966;7.958;2022-08-19T03:55:53;18.70;99.90
2603;DHT22;1311;47.966;7.958;2022-08-19T03:58:20;18.70;99.90
2603;DHT22;1311;47.966;7.958;2022-08-19T04:00:47;18.80;99.90
2603;DHT22;1311;47.966;7.958;2022-08-19T04:03:14;18.60;99.90
2603;DHT22;1311;47.966;7.958;2022-08-19T04:05:41;18.70;99.90
2603;DHT22;1311;47.966;7.958;2022-08-19T04:08:08;18.60;99.90
2603;DHT22;1311;47.966;7.958;2022-08-19T04:10:36;18.80;99.90
2603;DHT22;1311;47.966;7.958;2022-08-19T04:13:04;18.70;99.90
2603;DHT22;1311;47.966;7.958;2022-08-19T04:15:32;18.70;99.90
2603;DHT22;1311;47.966;7.958;2022-08-19T04:18:05;18.60;99.90
2603;DHT22;1311;47.966;7.958;2022-08-19T04:20:33;18.70;99.90
2603;DHT22;1311;47.966;7.958;2022-08-19T04:22:59;18.70;99.90
2603;DHT22;1311;47.966;7.958;2022-08-19T04:25:26;18.70;99.90
2603;DHT22;1311;47.966;7.958;2022-08-19T04:27:53;18.60;99.90
2603;DHT22;1311;47.966;7.958;2022-08-19T04:30:21;18.60;99.90
2603;DHT22;1311;47.966;7.958;2022-08-19T04:35:16;18.70;99.90
2603;DHT22;1311;47.966;7.958;2022-08-19T04:37:43;18.70;99.90
2603;DHT22;1311;47.966;7.958;2022-08-19T04:40:10;18.70;99.90
2603;DHT22;1311;47.966;7.958;2022-08-19T04:42:55;18.60;99.90
2603;DHT22;1311;47.966;7.958;2022-08-19T04:45:23;18.60;99.90
2603;DHT22;1311;47.966;7.958;2022-08-19T04:47:54;18.70;99.90
2603;DHT22;1311;47.966;7.958;2022-08-19T04:50:22;18.70;99.90
2603;DHT22;1311;47.966;7.958;2022-08-19T04:52:50;18.90;99.90
2603;DHT22;1311;47.966;7.958;2022-08-19T04:55:17;18.80;99.90
2603;DHT22;1311;47.966;7.958;2022-08-19T04:57:44;18.80;99.90
2603;DHT22;1311;47.966;7.958;2022-08-19T05:00:12;18.80;99.90
2603;DHT22;1311;47.966;7.958;2022-08-19T05:02:40;18.80;99.90
2603;DHT22;1311;47.966;7.958;2022-08-19T05:05:07;18.80;99.90
2603;DHT22;1311;47.966;7.958;2022-08-19T05:07:34;18.80;99.90
2603;DHT22;1311;47.966;7.958;2022-08-19T05:10:03;18.80;99.90
2603;DHT22;1311;47.966;7.958;2022-08-19T05:12:30;18.70;99.90
2603;DHT22;1311;47.966;7.958;2022-08-19T05:14:58;18.90;99.90
2603;DHT22;1311;47.966;7.958;2022-08-19T05:17:25;19.00;99.90
2603;DHT22;1311;47.966;7.958;2022-08-19T05:19:54;18.90;99.90
2603;DHT22;1311;47.966;7.958;2022-08-19T05:22:38;18.90;99.90
2603;DHT22;1311;47.966;7.958;2022-08-19T05:25:08;18.80;99.90
2603;DHT22;1311;47.966;7.958;2022-08-19T05:27:35;18.90;99.90
2603;DHT22;1311;47.966;7.958;2022-08-19T05:30:04;19.00;99.90
2603;DHT22;1311;47.966;7.958;2022-08-19T05:32:31;19.10;99.90
2603;DHT22;1311;47.966;7.958;2022-08-19T05:34:59;18.90;99.90
2603;DHT22;1311;47.966;7.958;2022-08-19T05:39:53;19.00;99.90
2603;DHT22;1311;47.966;7.958;2022-08-19T05:42:21;19.10;99.90
2603;DHT22;1311;47.966;7.958;2022-08-19T05:44:49;19.10;99.90
2603;DHT22;1311;47.966;7.958;2022-08-19T05:47:16;19.10;99.90
2603;DHT22;1311;47.966;7.958;2022-08-19T05:49:45;19.00;99.90
2603;DHT22;1311;47.966;7.958;2022-08-19T05:52:14;19.20;99.90
2603;DHT22;1311;47.966;7.958;2022-08-19T05:54:42;19.20;99.90
2603;DHT22;1311;47.966;7.958;2022-08-19T05:57:10;19.20;99.90
2603;DHT22;1311;47.966;7.958;2022-08-19T05:59:37;19.30;99.90
2603;DHT22;1311;47.966;7.958;2022-08-19T06:02:05;19.30;99.90
2603;DHT22;1311;47.966;7.958;2022-08-19T06:04:32;19.10;99.90
2603;DHT22;1311;47.966;7.958;2022-08-19T06:06:59;19.30;99.90
2603;DHT22;1311;47.966;7.958;2022-08-19T06:09:28;19.20;99.90
2603;DHT22;1311;47.966;7.958;2022-08-19T06:11:57;19.40;99.90
2603;DHT22;1311;47.966;7.958;2022-08-19T06:14:28;19.30;99.90
2603;DHT22;1311;47.966;7.958;2022-08-19T06:16:55;19.30;99.90
2603;DHT22;1311;47.966;7.958;2022-08-19T06:19:25;19.50;99.90
2603;DHT22;1311;47.966;7.958;2022-08-19T06:21:54;19.40;99.90
2603;DHT22;1311;47.966;7.958;2022-08-19T06:24:23;19.50;99.90
2603;DHT22;1311;47.966;7.958;2022-08-19T06:26:53;19.70;99.90
2603;DHT22;1311;47.966;7.958;2022-08-19T06:29:24;19.50;99.90
2603;DHT22;1311;47.966;7.958;2022-08-19T06:31:52;19.40;99.90
2603;DHT22;1311;47.966;7.958;2022-08-19T06:34:20;19.50;99.90
2603;DHT22;1311;47.966;7.958;2022-08-19T06:36:49;19.60;99.90
2603;DHT22;1311;47.966;7.958;2022-08-19T06:39:19;19.50;99.90
2603;DHT22;1311;47.966;7.958;2022-08-19T06:41:48;19.70;99.90
2603;DHT22;1311;47.966;7.958;2022-08-19T06:44:17;19.50;99.90
2603;DHT22;1311;47.966;7.958;2022-08-19T06:46:44;19.70;99.90
2603;DHT22;1311;47.966;7.958;2022-08-19T06:49:10;19.60;99.90
2603;DHT22;1311;47.966;7.958;2022-08-19T06:51:40;19.80;99.90
2603;DHT22;1311;47.966;7.958;2022-08-19T06:54:07;19.70;99.90
2603;DHT22;1311;47.966;7.958;2022-08-19T06:56:34;19.80;99.90
2603;DHT22;1311;47.966;7.958;2022-08-19T06:59:02;19.90;99.90
2603;DHT22;1311;47.966;7.958;2022-08-19T07:01:34;20.10;99.90
2603;DHT22;1311;47.966;7.958;2022-08-19T07:04:05;19.90;99.90
2603;DHT22;1311;47.966;7.958;2022-08-19T07:06:32;20.00;99.90
2603;DHT22;1311;47.966;7.958;2022-08-19T07:08:59;20.10;99.90
2603;DHT22;1311;47.966;7.958;2022-08-19T07:11:26;20.20;99.90
2603;DHT22;1311;47.966;7.958;2022-08-19T07:13:53;20.10;99.90
2603;DHT22;1311;47.966;7.958;2022-08-19T07:16:20;20.30;99.90
2603;DHT22;1311;47.966;7.958;2022-08-19T07:18:49;20.20;99.90
2603;DHT22;1311;47.966;7.958;2022-08-19T07:21:19;20.30;99.90
2603;DHT22;1311;47.966;7.958;2022-08-19T07:23:47;20.10;99.90
2603;DHT22;1311;47.966;7.958;2022-08-19T07:26:16;20.30;99.90
2603;DHT22;1311;47.966;7.958;2022-08-19T07:28:45;20.30;99.90
2603;DHT22;1311;47.966;7.958;2022-08-19T07:31:13;20.30;99.90
2603;DHT22;1311;47.966;7.958;2022-08-19T07:33:41;20.10;99.90
2603;DHT22;1311;47.966;7.958;2022-08-19T07:36:11;20.40;99.90
2603;DHT22;1311;47.966;7.958;2022-08-19T07:38:40;20.10;99.90
2603;DHT22;1311;47.966;7.958;2022-08-19T07:41:09;20.00;99.90
2603;DHT22;1311;47.966;7.958;2022-08-19T07:43:36;20.00;99.90
2603;DHT22;1311;47.966;7.958;2022-08-19T07:46:03;20.10;99.90
2603;DHT22;1311;47.966;7.958;2022-08-19T07:48:31;20.20;99.90
2603;DHT22;1311;47.966;7.958;2022-08-19T07:51:00;20.10;99.90
2603;DHT22;1311;47.966;7.958;2022-08-19T07:53:31;20.20;99.90
2603;DHT22;1311;47.966;7.958;2022-08-19T07:55:58;20.20;99.90
2603;DHT22;1311;47.966;7.958;2022-08-19T07:58:31;20.10;99.90
2603;DHT22;1311;47.966;7.958;2022-08-19T08:00:58;20.30;99.90
2603;DHT22;1311;47.966;7.958;2022-08-19T08:03:27;20.20;99.90
2603;DHT22;1311;47.966;7.958;2022-08-19T08:06:08;20.40;99.90
2603;DHT22;1311;47.966;7.958;2022-08-19T08:08:53;20.20;99.90
2603;DHT22;1311;47.966;7.958;2022-08-19T08:11:43;20.30;99.90
2603;DHT22;1311;47.966;7.958;2022-08-19T08:14:16;20.20;99.90
2603;DHT22;1311;47.966;7.958;2022-08-19T08:16:43;20.20;99.90
2603;DHT22;1311;47.966;7.958;2022-08-19T08:19:11;20.20;99.90
2603;DHT22;1311;47.966;7.958;2022-08-19T08:21:40;20.20;99.90
2603;DHT22;1311;47.966;7.958;2022-08-19T08:24:09;20.20;99.90
2603;DHT22;1311;47.966;7.958;2022-08-19T08:26:36;20.20;99.90
2603;DHT22;1311;47.966;7.958;2022-08-19T08:29:03;20.00;99.90
2603;DHT22;1311;47.966;7.958;2022-08-19T08:31:29;20.20;99.90
2603;DHT22;1311;47.966;7.958;2022-08-19T08:33:56;20.00;99.90
2603;DHT22;1311;47.966;7.958;2022-08-19T08:36:23;20.10;99.90
2603;DHT22;1311;47.966;7.958;2022-08-19T08:38:50;20.00;99.90
2603;DHT22;1311;47.966;7.958;2022-08-19T08:41:28;20.20;99.90
2603;DHT22;1311;47.966;7.958;2022-08-19T08:43:57;20.30;99.90
2603;DHT22;1311;47.966;7.958;2022-08-19T08:46:28;20.40;99.90
2603;DHT22;1311;47.966;7.958;2022-08-19T08:49:01;20.50;99.90
2603;DHT22;1311;47.966;7.958;2022-08-19T08:51:39;20.50;99.90
2603;DHT22;1311;47.966;7.958;2022-08-19T08:54:10;20.70;99.90
2603;DHT22;1311;47.966;7.958;2022-08-19T08:56:39;20.70;99.90
2603;DHT22;1311;47.966;7.958;2022-08-19T08:59:12;20.60;99.90
2603;DHT22;1311;47.966;7.958;2022-08-19T09:01:42;20.70;99.90
2603;DHT22;1311;47.966;7.958;2022-08-19T09:04:12;20.70;99.90
2603;DHT22;1311;47.966;7.958;2022-08-19T09:06:46;20.80;99.90
2603;DHT22;1311;47.966;7.958;2022-08-19T09:09:16;20.90;99.90
2603;DHT22;1311;47.966;7.958;2022-08-19T09:11:56;21.00;99.90
2603;DHT22;1311;47.966;7.958;2022-08-19T09:14:35;20.80;99.90
2603;DHT22;1311;47.966;7.958;2022-08-19T09:17:07;20.90;99.90
2603;DHT22;1311;47.966;7.958;2022-08-19T09:19:34;21.10;99.90
2603;DHT22;1311;47.966;7.958;2022-08-19T09:22:03;21.20;99.90
2603;DHT22;1311;47.966;7.958;2022-08-19T09:24:30;21.30;99.90
2603;DHT22;1311;47.966;7.958;2022-08-19T09:26:58;21.40;99.90
2603;DHT22;1311;47.966;7.958;2022-08-19T09:29:25;21.50;99.90
2603;DHT22;1311;47.966;7.958;2022-08-19T09:31:52;21.40;99.90
2603;DHT22;1311;47.966;7.958;2022-08-19T09:34:19;21.40;99.90
2603;DHT22;1311;47.966;7.958;2022-08-19T09:36:46;21.10;99.90
2603;DHT22;1311;47.966;7.958;2022-08-19T09:39:18;21.00;99.90
2603;DHT22;1311;47.966;7.958;2022-08-19T09:41:45;21.00;99.90
2603;DHT22;1311;47.966;7.958;2022-08-19T09:44:13;21.10;99.90
2603;DHT22;1311;47.966;7.958;2022-08-19T09:46:40;21.40;99.90
2603;DHT22;1311;47.966;7.958;2022-08-19T09:49:06;21.50;99.90
2603;DHT22;1311;47.966;7.958;2022-08-19T09:51:33;21.80;99.90
2603;DHT22;1311;47.966;7.958;2022-08-19T09:54:02;21.80;99.90
2603;DHT22;1311;47.966;7.958;2022-08-19T09:56:30;21.80;99.90
2603;DHT22;1311;47.966;7.958;2022-08-19T09:58:58;22.00;99.90
2603;DHT22;1311;47.966;7.958;2022-08-19T10:01:28;22.30;99.90
2603;DHT22;1311;47.966;7.958;2022-08-19T10:03:57;22.40;99.90
2603;DHT22;1311;47.966;7.958;2022-08-19T10:06:25;22.60;99.90
2603;DHT22;1311;47.966;7.958;2022-08-19T10:08:54;22.70;99.90
2603;DHT22;1311;47.966;7.958;2022-08-19T10:11:21;22.60;99.90
2603;DHT22;1311;47.966;7.958;2022-08-19T10:13:48;22.50;99.90
2603;DHT22;1311;47.966;7.958;2022-08-19T10:16:19;22.40;99.90
2603;DHT22;1311;47.966;7.958;2022-08-19T10:18:48;22.50;99.90
2603;DHT22;1311;47.966;7.958;2022-08-19T10:21:17;22.50;99.90
2603;DHT22;1311;47.966;7.958;2022-08-19T10:23:47;22.60;99.90
2603;DHT22;1311;47.966;7.958;2022-08-19T10:26:16;22.70;99.90
2603;DHT22;1311;47.966;7.958;2022-08-19T10:28:44;22.60;99.90
2603;DHT22;1311;47.966;7.958;2022-08-19T10:31:13;22.60;99.90
2603;DHT22;1311;47.966;7.958;2022-08-19T10:33:41;22.60;99.90
2603;DHT22;1311;47.966;7.958;2022-08-19T10:36:12;22.30;99.90
2603;DHT22;1311;47.966;7.958;2022-08-19T10:38:40;22.30;99.90
2603;DHT22;1311;47.966;7.958;2022-08-19T10:41:10;22.20;99.90
2603;DHT22;1311;47.966;7.958;2022-08-19T10:43:37;22.10;99.90
2603;DHT22;1311;47.966;7.958;2022-08-19T10:46:05;22.10;99.90
2603;DHT22;1311;47.966;7.958;2022-08-19T10:48:32;22.20;99.90
2603;DHT22;1311;47.966;7.958;2022-08-19T10:51:00;22.60;99.90
2603;DHT22;1311;47.966;7.958;2022-08-19T10:53:46;22.70;99.90
2603;DHT22;1311;47.966;7.958;2022-08-19T10:56:13;23.00;99.90
2603;DHT22;1311;47.966;7.958;2022-08-19T10:58:58;23.30;99.90
2603;DHT22;1311;47.966;7.958;2022-08-19T11:01:25;23.50;99.90
2603;DHT22;1311;47.966;7.958;2022-08-19T11:03:52;23.70;99.90
2603;DHT22;1311;47.966;7.958;2022-08-19T11:06:19;23.70;99.90
2603;DHT22;1311;47.966;7.958;2022-08-19T11:08:47;23.80;99.90
2603;DHT22;1311;47.966;7.958;2022-08-19T11:11:14;23.70;99.90
2603;DHT22;1311;47.966;7.958;2022-08-19T11:13:41;23.60;99.90
2603;DHT22;1311;47.966;7.958;2022-08-19T11:16:12;23.70;99.90
2603;DHT22;1311;47.966;7.958;2022-08-19T11:18:42;23.80;99.90
2603;DHT22;1311;47.966;7.958;2022-08-19T11:21:12;23.90;99.90
2603;DHT22;1311;47.966;7.958;2022-08-19T11:23:40;24.00;99.90
2603;DHT22;1311;47.966;7.958;2022-08-19T11:26:08;24.00;99.90
2603;DHT22;1311;47.966;7.958;2022-08-19T11:28:35;24.10;99.90
2603;DHT22;1311;47.966;7.958;2022-08-19T11:31:03;24.30;99.90
2603;DHT22;1311;47.966;7.958;2022-08-19T11:33:30;24.10;99.90
2603;DHT22;1311;47.966;7.958;2022-08-19T11:35:58;24.10;99.90
2603;DHT22;1311;47.966;7.958;2022-08-19T11:38:26;24.30;99.90
2603;DHT22;1311;47.966;7.958;2022-08-19T11:40:57;24.30;99.90
2603;DHT22;1311;47.966;7.958;2022-08-19T11:43:25;24.60;99.90
2603;DHT22;1311;47.966;7.958;2022-08-19T11:45:52;24.90;99.90
2603;DHT22;1311;47.966;7.958;2022-08-19T11:48:19;25.00;99.90
2603;DHT22;1311;47.966;7.958;2022-08-19T11:50:48;25.00;99.90
2603;DHT22;1311;47.966;7.958;2022-08-19T11:53:15;25.00;99.90
2603;DHT22;1311;47.966;7.958;2022-08-19T11:55:43;25.00;99.90
2603;DHT22;1311;47.966;7.958;2022-08-19T11:58:10;25.00;99.90
2603;DHT22;1311;47.966;7.958;2022-08-19T12:00:39;24.80;99.90
2603;DHT22;1311;47.966;7.958;2022-08-19T12:03:07;24.60;99.90
2603;DHT22;1311;47.966;7.958;2022-08-19T12:05:36;24.30;99.90
2603;DHT22;1311;47.966;7.958;2022-08-19T12:08:03;24.20;99.90
2603;DHT22;1311;47.966;7.958;2022-08-19T12:12:58;24.30;99.90
2603;DHT22;1311;47.966;7.958;2022-08-19T12:15:25;24.50;99.90
2603;DHT22;1311;47.966;7.958;2022-08-19T12:17:54;24.60;99.90
2603;DHT22;1311;47.966;7.958;2022-08-19T12:20:22;25.00;99.90
2603;DHT22;1311;47.966;7.958;2022-08-19T12:22:49;25.00;99.90
2603;DHT22;1311;47.966;7.958;2022-08-19T12:25:17;25.00;99.90
2603;DHT22;1311;47.966;7.958;2022-08-19T12:27:43;25.20;99.90
2603;DHT22;1311;47.966;7.958;2022-08-19T12:30:12;25.50;99.90
2603;DHT22;1311;47.966;7.958;2022-08-19T12:32:39;25.50;99.90
2603;DHT22;1311;47.966;7.958;2022-08-19T12:35:08;25.50;99.90
2603;DHT22;1311;47.966;7.958;2022-08-19T12:37:37;25.70;99.90
2603;DHT22;1311;47.966;7.958;2022-08-19T12:40:04;25.50;99.90
2603;DHT22;1311;47.966;7.958;2022-08-19T12:42:31;25.40;99.90
2603;DHT22;1311;47.966;7.958;2022-08-19T12:44:58;25.50;99.90
2603;DHT22;1311;47.966;7.958;2022-08-19T12:47:25;25.70;99.90
2603;DHT22;1311;47.966;7.958;2022-08-19T12:49:52;25.90;99.90
2603;DHT22;1311;47.966;7.958;2022-08-19T12:52:22;25.80;99.90
2603;DHT22;1311;47.966;7.958;2022-08-19T12:54:50;25.60;99.90
2603;DHT22;1311;47.966;7.958;2022-08-19T12:57:17;25.40;99.90
2603;DHT22;1311;47.966;7.958;2022-08-19T12:59:44;25.60;99.90
2603;DHT22;1311;47.966;7.958;2022-08-19T13:02:11;25.50;99.90
2603;DHT22;1311;47.966;7.958;2022-08-19T13:04:38;25.90;99.90
2603;DHT22;1311;47.966;7.958;2022-08-19T13:07:07;26.00;99.90
2603;DHT22;1311;47.966;7.958;2022-08-19T13:09:35;26.30;99.90
2603;DHT22;1311;47.966;7.958;2022-08-19T13:12:03;26.40;99.90
2603;DHT22;1311;47.966;7.958;2022-08-19T13:14:33;26.20;99.90
2603;DHT22;1311;47.966;7.958;2022-08-19T13:17:00;26.10;99.90
2603;DHT22;1311;47.966;7.958;2022-08-19T13:19:27;26.10;99.90
2603;DHT22;1311;47.966;7.958;2022-08-19T13:21:55;26.10;99.90
2603;DHT22;1311;47.966;7.958;2022-08-19T13:24:23;26.10;99.90
2603;DHT22;1311;47.966;7.958;2022-08-19T13:26:51;25.90;99.90
2603;DHT22;1311;47.966;7.958;2022-08-19T13:29:18;25.90;99.90
2603;DHT22;1311;47.966;7.958;2022-08-19T13:32:03;26.00;99.90
2603;DHT22;1311;47.966;7.958;2022-08-19T13:34:47;26.10;99.90
2603;DHT22;1311;47.966;7.958;2022-08-19T13:37:14;26.00;99.90
2603;DHT22;1311;47.966;7.958;2022-08-19T13:39:41;25.90;99.90
2603;DHT22;1311;47.966;7.958;2022-08-19T13:42:09;25.80;99.90
2603;DHT22;1311;47.966;7.958;2022-08-19T13:44:36;25.50;99.90
2603;DHT22;1311;47.966;7.958;2022-08-19T13:47:04;25.40;99.90
2603;DHT22;1311;47.966;7.958;2022-08-19T13:49:32;25.50;99.90
2603;DHT22;1311;47.966;7.958;2022-08-19T13:51:59;25.70;99.90
2603;DHT22;1311;47.966;7.958;2022-08-19T13:54:26;25.90;99.90
2603;DHT22;1311;47.966;7.958;2022-08-19T13:56:53;26.30;99.90
2603;DHT22;1311;47.966;7.958;2022-08-19T13:59:21;26.50;99.90
2603;DHT22;1311;47.966;7.958;2022-08-19T14:01:48;26.70;99.90
2603;DHT22;1311;47.966;7.958;2022-08-19T14:04:15;26.90;99.90
2603;DHT22;1311;47.966;7.958;2022-08-19T14:06:42;26.90;99.90
2603;DHT22;1311;47.966;7.958;2022-08-19T14:09:08;27.10;99.90
2603;DHT22;1311;47.966;7.958;2022-08-19T14:11:35;27.20;99.90
2603;DHT22;1311;47.966;7.958;2022-08-19T14:14:02;27.10;99.90
2603;DHT22;1311;47.966;7.958;2022-08-19T14:16:31;27.20;99.90
2603;DHT22;1311;47.966;7.958;2022-08-19T14:18:57;27.30;99.90
2603;DHT22;1311;47.966;7.958;2022-08-19T14:21:25;27.50;99.90
2603;DHT22;1311;47.966;7.958;2022-08-19T14:23:52;27.80;99.90
2603;DHT22;1311;47.966;7.958;2022-08-19T14:26:20;28.00;99.90
2603;DHT22;1311;47.966;7.958;2022-08-19T14:28:47;28.00;99.90
2603;DHT22;1311;47.966;7.958;2022-08-19T14:31:17;27.80;99.90
2603;DHT22;1311;47.966;7.958;2022-08-19T14:33:46;27.80;99.90
2603;DHT22;1311;47.966;7.958;2022-08-19T14:36:13;27.50;99.90
2603;DHT22;1311;47.966;7.958;2022-08-19T14:38:41;27.10;99.90
2603;DHT22;1311;47.966;7.958;2022-08-19T14:41:10;27.00;99.90
2603;DHT22;1311;47.966;7.958;2022-08-19T14:43:37;26.80;99.90
2603;DHT22;1311;47.966;7.958;2022-08-19T14:46:05;26.60;99.90
2603;DHT22;1311;47.966;7.958;2022-08-19T14:48:33;26.20;99.90
2603;DHT22;1311;47.966;7.958;2022-08-19T14:51:03;26.20;99.90
2603;DHT22;1311;47.966;7.958;2022-08-19T14:53:29;26.00;99.90
2603;DHT22;1311;47.966;7.958;2022-08-19T14:55:56;25.70;99.90
2603;DHT22;1311;47.966;7.958;2022-08-19T14:58:23;25.60;99.90
2603;DHT22;1311;47.966;7.958;2022-08-19T15:00:49;25.50;99.90
2603;DHT22;1311;47.966;7.958;2022-08-19T15:03:16;25.40;99.90
2603;DHT22;1311;47.966;7.958;2022-08-19T15:05:43;25.40;99.90
2603;DHT22;1311;47.966;7.958;2022-08-19T15:08:12;25.30;99.90
2603;DHT22;1311;47.966;7.958;2022-08-19T15:10:38;25.40;99.90
2603;DHT22;1311;47.966;7.958;2022-08-19T15:13:05;25.50;99.90
2603;DHT22;1311;47.966;7.958;2022-08-19T15:15:32;25.60;99.90
2603;DHT22;1311;47.966;7.958;2022-08-19T15:18:00;25.60;99.90
2603;DHT22;1311;47.966;7.958;2022-08-19T15:20:29;25.70;99.90
2603;DHT22;1311;47.966;7.958;2022-08-19T15:22:56;25.80;99.90
2603;DHT22;1311;47.966;7.958;2022-08-19T15:25:25;25.60;99.90
2603;DHT22;1311;47.966;7.958;2022-08-19T15:27:53;25.50;99.90
2603;DHT22;1311;47.966;7.958;2022-08-19T15:30:23;25.70;99.90
2603;DHT22;1311;47.966;7.958;2022-08-19T15:32:51;25.60;99.90
2603;DHT22;1311;47.966;7.958;2022-08-19T15:35:21;25.70;99.90
2603;DHT22;1311;47.966;7.958;2022-08-19T15:37:48;25.70;99.90
2603;DHT22;1311;47.966;7.958;2022-08-19T15:40:16;25.60;99.90
2603;DHT22;1311;47.966;7.958;2022-08-19T15:42:44;25.50;99.90
2603;DHT22;1311;47.966;7.958;2022-08-19T15:45:13;25.50;99.90
2603;DHT22;1311;47.966;7.958;2022-08-19T15:47:40;25.50;99.90
2603;DHT22;1311;47.966;7.958;2022-08-19T15:50:09;25.40;99.90
2603;DHT22;1311;47.966;7.958;2022-08-19T15:52:44;25.30;99.90
2603;DHT22;1311;47.966;7.958;2022-08-19T15:55:16;25.20;99.90
2603;DHT22;1311;47.966;7.958;2022-08-19T15:57:44;25.10;99.90
2603;DHT22;1311;47.966;7.958;2022-08-19T16:00:34;24.90;99.90
2603;DHT22;1311;47.966;7.958;2022-08-19T16:03:18;24.80;99.90
2603;DHT22;1311;47.966;7.958;2022-08-19T16:06:03;24.60;99.90
2603;DHT22;1311;47.966;7.958;2022-08-19T16:08:47;24.50;99.90
2603;DHT22;1311;47.966;7.958;2022-08-19T16:11:16;24.40;99.90
2603;DHT22;1311;47.966;7.958;2022-08-19T16:13:46;24.20;99.90
2603;DHT22;1311;47.966;7.958;2022-08-19T16:16:16;24.20;99.90
2603;DHT22;1311;47.966;7.958;2022-08-19T16:18:43;24.20;99.90
2603;DHT22;1311;47.966;7.958;2022-08-19T16:21:12;24.10;99.90
2603;DHT22;1311;47.966;7.958;2022-08-19T16:23:42;24.20;99.90
2603;DHT22;1311;47.966;7.958;2022-08-19T16:26:09;24.20;99.90
2603;DHT22;1311;47.966;7.958;2022-08-19T16:28:36;24.20;99.90
2603;DHT22;1311;47.966;7.958;2022-08-19T16:31:04;24.20;99.90
2603;DHT22;1311;47.966;7.958;2022-08-19T16:33:31;24.20;99.90
2603;DHT22;1311;47.966;7.958;2022-08-19T16:35:58;24.20;99.90
2603;DHT22;1311;47.966;7.958;2022-08-19T16:38:25;24.10;99.90
2603;DHT22;1311;47.966;7.958;2022-08-19T16:40:52;24.10;99.90